Surface observations / Quebec / CYHU

Quebec | Canada | USA | France | UK | Europe | Elsewhere

Display: Info & Location for CYHU | Help decoding METAR

YHU SAINT-HUBERT ARPT QB CN
Raw surface observations for station CYHU
CYHU 310300Z AUTO 34012KT 9SM SCT047 OVC060 M14/M20 A3014 RMK SLP207=
CYHU 310200Z AUTO 33010KT 9SM SCT060 M13/M19 A3013 RMK SLP204=
CYHU 310100Z AUTO 32011G16KT 9SM SCT043 BKN170 BKN190 M12/M18 A3010 RMK SLP196=
CYHU 310000Z AUTO 32012G18KT 9SM FEW039 SCT110 BKN190 M11/M17 A3007 RMK SLP186=
CYHU 302346Z AUTO 32013G18KT 9SM SCT039 OVC110 M11/M16 A3007 RMK SLP185=
CYHU 302300Z AUTO 33016G21KT 9SM -SN OVC033 M10/M14 A3005 RMK SLP176=
CYHU 302200Z AUTO 32008KT 9SM -SN OVC031 M09/M14 A3003 RMK SLP169=
CYHU 302100Z AUTO 32011KT 9SM -SN BKN036 OVC043 M08/M14 A2999 RMK SLP156=
CYHU 302000Z AUTO 31012KT 9SM -SN OVC032 M07/M13 A2995 RMK SLP144=
CYHU 301902Z AUTO 31013KT 8SM -SN OVC026 M07/M12 A2992 RMK SLP134=
CYHU 301900Z AUTO 31011G16KT 8SM -SN OVC024 M07/M11 A2992 RMK SLP134=
CYHU 301842Z AUTO 31011G16KT 7SM -SN OVC024 M06/M11 A2991 RMK SLP129=
CYHU 301830Z AUTO 32012KT 5SM -SN BKN024 OVC032 M06/M11 A2990 RMK SLP127=
CYHU 301818Z AUTO 34012G18KT 6SM -SN BKN019 BKN026 OVC032 M06/M10 A2990 RMK SLP125=
CYHU 301810Z AUTO 33014G19KT 4SM -SN SCT019 BKN025 OVC034 M06/M10 A2990 RMK SLP125=
CYHU 301800Z AUTO 34015KT 3SM -SN BKN019 BKN027 OVC034 M06/M10 A2990 RMK SLP125=
CYHU 301731Z AUTO 35015KT 3SM -SN FEW013 BKN018 OVC027 M05/M09 A2989 RMK SLP122=
CYHU 301729Z AUTO 34014KT 2SM -SN SCT013 BKN018 OVC027 M05/M09 A2989 RMK SLP122=
CYHU 301716Z AUTO 34014G21KT 1 3/4SM -SN SCT013 BKN018 OVC024 M05/M08 A2989 RMK SLP122=
CYHU 301651Z AUTO 32009KT 2 1/2SM -SN FEW013 BKN026 OVC032 M04/M07 A2988 RMK SLP121=
CYHU 301644Z AUTO 33009G15KT 5SM -SN FEW013 BKN026 OVC032 M04/M07 A2989 RMK SLP122=
CYHU 301633Z AUTO 33011KT 6SM -SN SCT023 BKN027 OVC033 M04/M07 A2988 RMK SLP121=
CYHU 301630Z AUTO 32011G16KT 4SM -SN FEW020 OVC027 M04/M07 A2988 RMK SLP120=
CYHU 301629Z AUTO 32011KT 3SM -SN BKN023 OVC029 M04/M07 A2988 RMK SLP121=
CYHU 301628Z AUTO 32012KT 3SM -SN FEW014 OVC025 M04/M07 A2988 RMK SLP121=
CYHU 301619Z AUTO 32012G18KT 3SM -SN FEW014 BKN022 OVC031 M04/M07 A2988 RMK SLP120=
CYHU 301615Z AUTO 32014G19KT 3SM -SN FEW012 BKN022 OVC033 M04/M07 A2988 RMK SLP120=
CYHU 301600Z AUTO 32012KT 3SM -SN FEW011 SCT019 OVC032 M04/M06 A2988 RMK SLP119=
CYHU 301517Z AUTO 32012KT 3SM -SN FEW010 OVC027 M04/M06 A2986 RMK SLP114=
CYHU 301500Z AUTO 32014KT 2 1/2SM -SN BKN027 OVC034 M04/M06 A2985 RMK SLP109=
CYHU 301437Z AUTO 33011KT 2 1/2SM -SN FEW007 SCT023 OVC032 M04/M05 A2984 RMK SLP105=
CYHU 301426Z AUTO 32010KT 2 1/2SM -SN SCT007 BKN021 OVC030 M04/M05 A2983 RMK SLP104=
CYHU 301407Z AUTO 32010KT 4SM -SN SCT007 OVC017 M03/M05 A2983 RMK SLP103=
CYHU 301400Z AUTO 32008KT 5SM -SN BKN009 OVC016 M03/M05 A2983 RMK SLP102=
CYHU 301334Z AUTO 23005KT 3SM -SN BKN011 OVC016 M03/M04 A2982 RMK SLP098=
CYHU 301300Z AUTO 21004KT 2SM -SN BKN014 OVC026 M03/M04 A2980 RMK SLP094=
CYHU 301256Z AUTO 22004KT 1 1/2SM -SN SCT016 OVC026 M03/M04 A2980 RMK SLP094=
CYHU 301200Z AUTO 21004KT 1SM R24R/P6000FT/U -SN VV014 M03/M04 A2980 RMK PCPN 0.8MM PAST HR SLP091=
CYHU 301100Z AUTO 21005KT 1 1/4SM -SN FEW006 BKN010 OVC016 M03/M04 A2980 RMK SLP092=
CYHU 301024Z AUTO 19008KT 1 3/4SM -SN OVC015 M03/M04 A2979 RMK SLP089=
CYHU 301020Z AUTO 19009KT 2SM -SN OVC015 M03/M04 A2979 RMK SLP089=
CYHU 301000Z AUTO 18009KT 1 1/4SM -SN OVC017 M03/M04 A2978 RMK SLP087=
CYHU 300913Z AUTO 19010G17KT 1 3/4SM -SN BKN021 BKN030 OVC043 M03/M05 A2978 RMK SLP086=
CYHU 300911Z AUTO 18011G17KT 2 1/2SM -SN BKN023 BKN030 OVC043 M03/M05 A2978 RMK SLP086=
CYHU 300910Z AUTO 18012G17KT 2 1/2SM -SN BKN025 BKN030 OVC043 M03/M05 A2978 RMK SLP086=
CYHU 300904Z AUTO 18012KT 5SM -SN BKN032 OVC043 M03/M05 A2978 RMK SLP086=
CYHU 300900Z AUTO 18010G17KT 7SM -SN BKN032 OVC041 M03/M05 A2978 RMK SLP086=
CYHU 300816Z AUTO 17012G17KT 9SM -SN OVC030 M03/M05 A2977 RMK SLP083=
CYHU 300813Z AUTO 17013KT 9SM OVC030 M03/M05 A2977 RMK SLP083=
CYHU 300803Z AUTO 18013G18KT 9SM -SN OVC032 M03/M05 A2977 RMK SLP084=
CYHU 300800Z AUTO 17013G20KT 9SM OVC032 M03/M05 A2977 RMK SLP083=
CYHU 300759Z AUTO 17014G20KT 9SM OVC032 M03/M05 A2977 RMK SLP084=
CYHU 300700Z AUTO 18014G20KT 9SM -SN OVC036 M02/M06 A2978 RMK SLP087=
CYHU 300633Z AUTO 18015G24KT 9SM -SN OVC038 M02/M05 A2978 RMK SLP087=
CYHU 300621Z AUTO 17015G20KT 9SM OVC038 M02/M05 A2979 RMK SLP088=
CYHU 300600Z AUTO 18017G25KT 9SM -SN OVC036 M02/M05 A2979 RMK SLP090=
CYHU 300529Z AUTO 17018G23KT 9SM -SN SCT010 SCT016 OVC036 M03/M05 A2980 RMK SLP092=
CYHU 300524Z AUTO 17017G22KT 6SM -SN SCT010 BKN018 OVC036 M03/M05 A2980 RMK SLP092=
CYHU 300520Z AUTO 17016G24KT 3SM -SN SCT010 BKN018 OVC036 M03/M05 A2980 RMK SLP093=
CYHU 300516Z AUTO 18016G24KT 2SM -SN SCT010 BKN018 OVC038 M03/M05 A2980 RMK SLP093=
CYHU 300500Z AUTO 17019G25KT 1 1/2SM -SN FEW011 OVC018 M03/M05 A2980 RMK SLP094=
CYHU 300433Z AUTO 17013G21KT 1 3/4SM -SN OVC024 M03/M05 A2982 RMK SLP098=
CYHU 300418Z AUTO 17013G23KT 2SM -SN BKN024 OVC030 M03/M05 A2982 RMK SLP099=
CYHU 300400Z AUTO 18014G24KT 1 3/4SM -SN OVC024 M02/M06 A2982 RMK VIS VRB 1 1/4-2 1/4 SLP100=
CYHU 300359Z AUTO 18016G24KT 1 3/4SM -SN OVC024 M02/M06 A2982 RMK VIS VRB 1 1/4-2 1/4 SLP100=
CYHU 300355Z AUTO 18017G27KT 2SM -SN OVC024 M02/M06 A2982 RMK VIS VRB 1 1/2-2 1/2 SLP100=
CYHU 300349Z AUTO 18019G28KT 2 1/2SM -SN BKN028 OVC041 M01/M06 A2982 RMK VIS VRB 1 1/2-3 SLP100=
CYHU 300344Z AUTO 18020G28KT 5SM -SN BKN030 BKN041 OVC050 M01/M07 A2982 RMK SLP099=
CYHU 300335Z AUTO 17016G23KT 9SM -SN BKN039 OVC050 M01/M10 A2982 RMK SLP099=
CYHU 300303Z AUTO 16016G23KT 9SM OVC055 M00/M10 A2982 RMK SLP099=
CYHU 300300Z AUTO 16016G22KT 9SM -SN OVC060 M00/M10 A2982 RMK SLP099=